sensor_id;sensor_type;location;lat;lon;timestamp;temperature;humidity
11569;DHT22;5840;46.894;15.542;2022-07-25T00:01:17;21.50;99.90
11569;DHT22;5840;46.894;15.542;2022-07-25T00:03:43;21.50;99.90
11569;DHT22;5840;46.894;15.542;2022-07-25T00:06:10;21.50;99.90
11569;DHT22;5840;46.894;15.542;2022-07-25T00:08:39;21.50;99.90
11569;DHT22;5840;46.894;15.542;2022-07-25T00:11:06;21.50;99.90
11569;DHT22;5840;46.894;15.542;2022-07-25T00:13:33;21.60;99.90
11569;DHT22;5840;46.894;15.542;2022-07-25T00:16:00;21.50;99.90
11569;DHT22;5840;46.894;15.542;2022-07-25T00:18:27;21.50;99.90
11569;DHT22;5840;46.894;15.542;2022-07-25T00:20:54;21.50;99.90
11569;DHT22;5840;46.894;15.542;2022-07-25T00:23:21;21.40;99.90
11569;DHT22;5840;46.894;15.542;2022-07-25T00:25:49;21.40;99.90
11569;DHT22;5840;46.894;15.542;2022-07-25T00:28:16;21.40;99.90
11569;DHT22;5840;46.894;15.542;2022-07-25T00:30:43;21.30;99.90
11569;DHT22;5840;46.894;15.542;2022-07-25T00:33:10;21.30;99.90
11569;DHT22;5840;46.894;15.542;2022-07-25T00:35:37;21.30;99.90
11569;DHT22;5840;46.894;15.542;2022-07-25T00:38:04;21.30;99.90
11569;DHT22;5840;46.894;15.542;2022-07-25T00:40:31;21.30;99.90
11569;DHT22;5840;46.894;15.542;2022-07-25T00:42:59;21.30;99.90
11569;DHT22;5840;46.894;15.542;2022-07-25T00:45:26;21.30;99.90
11569;DHT22;5840;46.894;15.542;2022-07-25T00:47:53;21.30;99.90
11569;DHT22;5840;46.894;15.542;2022-07-25T00:50:20;21.20;99.90
11569;DHT22;5840;46.894;15.542;2022-07-25T00:52:47;21.20;99.90
11569;DHT22;5840;46.894;15.542;2022-07-25T00:55:14;21.20;99.90
11569;DHT22;5840;46.894;15.542;2022-07-25T00:57:41;21.20;99.90
11569;DHT22;5840;46.894;15.542;2022-07-25T01:00:13;21.10;99.90
11569;DHT22;5840;46.894;15.542;2022-07-25T01:02:41;21.10;99.90
11569;DHT22;5840;46.894;15.542;2022-07-25T01:05:08;21.10;99.90
11569;DHT22;5840;46.894;15.542;2022-07-25T01:07:37;21.10;99.90
11569;DHT22;5840;46.894;15.542;2022-07-25T01:10:05;21.10;99.90
11569;DHT22;5840;46.894;15.542;2022-07-25T01:12:43;21.10;99.90
11569;DHT22;5840;46.894;15.542;2022-07-25T01:15:12;21.10;99.90
11569;DHT22;5840;46.894;15.542;2022-07-25T01:17:39;21.00;99.90
11569;DHT22;5840;46.894;15.542;2022-07-25T01:20:13;21.00;99.90
11569;DHT22;5840;46.894;15.542;2022-07-25T01:22:39;20.90;99.90
11569;DHT22;5840;46.894;15.542;2022-07-25T01:25:07;20.90;99.90
11569;DHT22;5840;46.894;15.542;2022-07-25T01:27:34;20.80;99.90
11569;DHT22;5840;46.894;15.542;2022-07-25T01:30:01;20.80;99.90
11569;DHT22;5840;46.894;15.542;2022-07-25T01:32:29;20.70;99.90
11569;DHT22;5840;46.894;15.542;2022-07-25T01:34:56;20.70;99.90
11569;DHT22;5840;46.894;15.542;2022-07-25T01:37:24;20.70;99.90
11569;DHT22;5840;46.894;15.542;2022-07-25T01:39:51;20.60;99.90
11569;DHT22;5840;46.894;15.542;2022-07-25T01:42:18;20.60;99.90
11569;DHT22;5840;46.894;15.542;2022-07-25T01:44:45;20.60;99.90
11569;DHT22;5840;46.894;15.542;2022-07-25T01:47:12;20.60;99.90
11569;DHT22;5840;46.894;15.542;2022-07-25T01:49:39;20.60;99.90
11569;DHT22;5840;46.894;15.542;2022-07-25T01:52:06;20.60;99.90
11569;DHT22;5840;46.894;15.542;2022-07-25T01:54:34;20.50;99.90
11569;DHT22;5840;46.894;15.542;2022-07-25T01:57:01;20.50;99.90
11569;DHT22;5840;46.894;15.542;2022-07-25T01:59:28;20.50;99.90
11569;DHT22;5840;46.894;15.542;2022-07-25T02:01:55;20.40;99.90
11569;DHT22;5840;46.894;15.542;2022-07-25T02:04:22;20.40;99.90
11569;DHT22;5840;46.894;15.542;2022-07-25T02:06:49;20.30;99.90
11569;DHT22;5840;46.894;15.542;2022-07-25T02:09:16;20.30;99.90
11569;DHT22;5840;46.894;15.542;2022-07-25T02:11:45;20.30;99.90
11569;DHT22;5840;46.894;15.542;2022-07-25T02:14:12;20.30;99.90
11569;DHT22;5840;46.894;15.542;2022-07-25T02:16:38;20.30;99.90
11569;DHT22;5840;46.894;15.542;2022-07-25T02:19:05;20.30;99.90
11569;DHT22;5840;46.894;15.542;2022-07-25T02:21:32;20.30;99.90
11569;DHT22;5840;46.894;15.542;2022-07-25T02:23:59;20.20;99.90
11569;DHT22;5840;46.894;15.542;2022-07-25T02:26:26;20.20;99.90
11569;DHT22;5840;46.894;15.542;2022-07-25T02:28:54;20.10;99.90
11569;DHT22;5840;46.894;15.542;2022-07-25T02:31:21;20.10;99.90
11569;DHT22;5840;46.894;15.542;2022-07-25T02:33:48;20.10;99.90
11569;DHT22;5840;46.894;15.542;2022-07-25T02:36:15;20.00;99.90
11569;DHT22;5840;46.894;15.542;2022-07-25T02:38:42;20.00;99.90
11569;DHT22;5840;46.894;15.542;2022-07-25T02:41:09;20.00;99.90
11569;DHT22;5840;46.894;15.542;2022-07-25T02:43:36;19.90;99.90
11569;DHT22;5840;46.894;15.542;2022-07-25T02:46:05;19.90;99.90
11569;DHT22;5840;46.894;15.542;2022-07-25T02:48:32;19.80;99.90
11569;DHT22;5840;46.894;15.542;2022-07-25T02:50:59;19.80;99.90
11569;DHT22;5840;46.894;15.542;2022-07-25T02:53:26;19.80;99.90
11569;DHT22;5840;46.894;15.542;2022-07-25T02:55:52;19.80;99.90
11569;DHT22;5840;46.894;15.542;2022-07-25T02:58:19;19.80;99.90
11569;DHT22;5840;46.894;15.542;2022-07-25T03:00:46;19.80;99.90
11569;DHT22;5840;46.894;15.542;2022-07-25T03:03:14;19.80;99.90
11569;DHT22;5840;46.894;15.542;2022-07-25T03:05:41;19.80;99.90
11569;DHT22;5840;46.894;15.542;2022-07-25T03:08:08;19.70;99.90
11569;DHT22;5840;46.894;15.542;2022-07-25T03:10:35;19.70;99.90
11569;DHT22;5840;46.894;15.542;2022-07-25T03:13:02;19.70;99.90
11569;DHT22;5840;46.894;15.542;2022-07-25T03:15:29;19.70;99.90
11569;DHT22;5840;46.894;15.542;2022-07-25T03:17:56;19.60;99.90
11569;DHT22;5840;46.894;15.542;2022-07-25T03:20:24;19.70;99.90
11569;DHT22;5840;46.894;15.542;2022-07-25T03:22:51;19.60;99.90
11569;DHT22;5840;46.894;15.542;2022-07-25T03:25:18;19.60;99.90
11569;DHT22;5840;46.894;15.542;2022-07-25T03:27:45;19.60;99.90
11569;DHT22;5840;46.894;15.542;2022-07-25T03:30:12;19.60;99.90
11569;DHT22;5840;46.894;15.542;2022-07-25T03:32:39;19.60;99.90
11569;DHT22;5840;46.894;15.542;2022-07-25T03:35:07;19.50;99.90
11569;DHT22;5840;46.894;15.542;2022-07-25T03:37:35;19.50;99.90
11569;DHT22;5840;46.894;15.542;2022-07-25T03:40:03;19.50;99.90
11569;DHT22;5840;46.894;15.542;2022-07-25T03:42:30;19.50;99.90
11569;DHT22;5840;46.894;15.542;2022-07-25T03:44:57;19.50;99.90
11569;DHT22;5840;46.894;15.542;2022-07-25T03:47:23;19.50;99.90
11569;DHT22;5840;46.894;15.542;2022-07-25T03:49:50;19.40;99.90
11569;DHT22;5840;46.894;15.542;2022-07-25T03:52:17;19.40;99.90
11569;DHT22;5840;46.894;15.542;2022-07-25T03:54:46;19.40;99.90
11569;DHT22;5840;46.894;15.542;2022-07-25T03:57:13;19.40;99.90
11569;DHT22;5840;46.894;15.542;2022-07-25T03:59:40;19.40;99.90
11569;DHT22;5840;46.894;15.542;2022-07-25T04:02:06;19.40;99.90
11569;DHT22;5840;46.894;15.542;2022-07-25T04:04:33;19.40;99.90
11569;DHT22;5840;46.894;15.542;2022-07-25T04:07:00;19.40;99.90
11569;DHT22;5840;46.894;15.542;2022-07-25T04:09:27;19.40;99.90
11569;DHT22;5840;46.894;15.542;2022-07-25T04:11:56;19.40;99.90
11569;DHT22;5840;46.894;15.542;2022-07-25T04:14:23;19.40;99.90
11569;DHT22;5840;46.894;15.542;2022-07-25T04:16:49;19.40;99.90
11569;DHT22;5840;46.894;15.542;2022-07-25T04:19:16;19.40;99.90
11569;DHT22;5840;46.894;15.542;2022-07-25T04:21:43;19.40;99.90
11569;DHT22;5840;46.894;15.542;2022-07-25T04:24:10;19.40;99.90
11569;DHT22;5840;46.894;15.542;2022-07-25T04:26:37;19.40;99.90
11569;DHT22;5840;46.894;15.542;2022-07-25T04:29:05;19.40;99.90
11569;DHT22;5840;46.894;15.542;2022-07-25T04:31:32;19.40;99.90
11569;DHT22;5840;46.894;15.542;2022-07-25T04:33:59;19.40;99.90
11569;DHT22;5840;46.894;15.542;2022-07-25T04:36:26;19.50;99.90
11569;DHT22;5840;46.894;15.542;2022-07-25T04:38:53;19.50;99.90
11569;DHT22;5840;46.894;15.542;2022-07-25T04:41:20;19.50;99.90
11569;DHT22;5840;46.894;15.542;2022-07-25T04:43:47;19.60;99.90
11569;DHT22;5840;46.894;15.542;2022-07-25T04:46:18;19.70;99.90
11569;DHT22;5840;46.894;15.542;2022-07-25T04:48:45;19.70;99.90
11569;DHT22;5840;46.894;15.542;2022-07-25T04:51:12;19.80;99.90
11569;DHT22;5840;46.894;15.542;2022-07-25T04:53:39;19.80;99.90
11569;DHT22;5840;46.894;15.542;2022-07-25T04:56:06;19.90;99.90
11569;DHT22;5840;46.894;15.542;2022-07-25T04:58:33;19.90;99.90
11569;DHT22;5840;46.894;15.542;2022-07-25T05:01:00;20.00;99.90
11569;DHT22;5840;46.894;15.542;2022-07-25T05:03:28;20.00;99.90
11569;DHT22;5840;46.894;15.542;2022-07-25T05:05:55;20.00;99.90
11569;DHT22;5840;46.894;15.542;2022-07-25T05:08:22;20.00;99.90
11569;DHT22;5840;46.894;15.542;2022-07-25T05:10:49;20.10;99.90
11569;DHT22;5840;46.894;15.542;2022-07-25T05:13:16;20.10;99.90
11569;DHT22;5840;46.894;15.542;2022-07-25T05:15:43;20.10;99.90
11569;DHT22;5840;46.894;15.542;2022-07-25T05:18:10;20.10;99.90
11569;DHT22;5840;46.894;15.542;2022-07-25T05:20:38;20.20;99.90
11569;DHT22;5840;46.894;15.542;2022-07-25T05:23:05;20.30;99.90
11569;DHT22;5840;46.894;15.542;2022-07-25T05:25:32;20.40;99.90
11569;DHT22;5840;46.894;15.542;2022-07-25T05:27:59;20.40;99.90
11569;DHT22;5840;46.894;15.542;2022-07-25T05:30:27;20.50;99.90
11569;DHT22;5840;46.894;15.542;2022-07-25T05:32:54;20.60;99.90
11569;DHT22;5840;46.894;15.542;2022-07-25T05:35:21;20.70;99.90
11569;DHT22;5840;46.894;15.542;2022-07-25T05:37:49;20.80;99.90
11569;DHT22;5840;46.894;15.542;2022-07-25T05:40:16;20.80;99.90
11569;DHT22;5840;46.894;15.542;2022-07-25T05:42:44;20.90;99.90
11569;DHT22;5840;46.894;15.542;2022-07-25T05:45:11;20.90;99.90
11569;DHT22;5840;46.894;15.542;2022-07-25T05:47:37;20.90;99.90
11569;DHT22;5840;46.894;15.542;2022-07-25T05:50:05;20.90;99.90
11569;DHT22;5840;46.894;15.542;2022-07-25T05:52:33;21.00;99.90
11569;DHT22;5840;46.894;15.542;2022-07-25T05:55:01;21.00;99.90
11569;DHT22;5840;46.894;15.542;2022-07-25T05:57:28;21.10;99.90
11569;DHT22;5840;46.894;15.542;2022-07-25T05:59:55;21.20;99.90
11569;DHT22;5840;46.894;15.542;2022-07-25T06:02:22;21.40;99.90
11569;DHT22;5840;46.894;15.542;2022-07-25T06:04:49;21.40;99.90
11569;DHT22;5840;46.894;15.542;2022-07-25T06:07:16;21.60;99.90
11569;DHT22;5840;46.894;15.542;2022-07-25T06:09:43;21.70;99.90
11569;DHT22;5840;46.894;15.542;2022-07-25T06:12:11;21.80;99.90
11569;DHT22;5840;46.894;15.542;2022-07-25T06:14:38;21.90;99.90
11569;DHT22;5840;46.894;15.542;2022-07-25T06:17:05;22.00;99.90
11569;DHT22;5840;46.894;15.542;2022-07-25T06:19:32;22.10;99.90
11569;DHT22;5840;46.894;15.542;2022-07-25T06:21:59;22.20;99.90
11569;DHT22;5840;46.894;15.542;2022-07-25T06:24:26;22.30;99.90
11569;DHT22;5840;46.894;15.542;2022-07-25T06:26:53;22.50;99.90
11569;DHT22;5840;46.894;15.542;2022-07-25T06:29:21;22.60;99.90
11569;DHT22;5840;46.894;15.542;2022-07-25T06:31:48;22.70;99.90
11569;DHT22;5840;46.894;15.542;2022-07-25T06:34:15;22.80;99.90
11569;DHT22;5840;46.894;15.542;2022-07-25T06:36:42;23.00;99.90
11569;DHT22;5840;46.894;15.542;2022-07-25T06:39:09;23.20;99.90
11569;DHT22;5840;46.894;15.542;2022-07-25T06:41:36;23.40;99.90
11569;DHT22;5840;46.894;15.542;2022-07-25T06:44:03;23.60;99.90
11569;DHT22;5840;46.894;15.542;2022-07-25T06:46:32;23.70;99.90
11569;DHT22;5840;46.894;15.542;2022-07-25T06:48:58;23.90;99.90
11569;DHT22;5840;46.894;15.542;2022-07-25T06:51:25;24.20;99.90
11569;DHT22;5840;46.894;15.542;2022-07-25T06:53:52;24.30;99.90
11569;DHT22;5840;46.894;15.542;2022-07-25T06:56:19;24.50;99.90
11569;DHT22;5840;46.894;15.542;2022-07-25T06:58:46;24.70;99.90
11569;DHT22;5840;46.894;15.542;2022-07-25T07:01:13;25.00;99.90
11569;DHT22;5840;46.894;15.542;2022-07-25T07:03:41;25.10;99.90
11569;DHT22;5840;46.894;15.542;2022-07-25T07:06:08;25.30;99.90
11569;DHT22;5840;46.894;15.542;2022-07-25T07:08:36;25.50;99.90
11569;DHT22;5840;46.894;15.542;2022-07-25T07:11:03;25.60;99.90
11569;DHT22;5840;46.894;15.542;2022-07-25T07:13:30;25.80;99.90
11569;DHT22;5840;46.894;15.542;2022-07-25T07:15:57;25.90;99.90
11569;DHT22;5840;46.894;15.542;2022-07-25T07:18:24;26.10;99.90
11569;DHT22;5840;46.894;15.542;2022-07-25T07:20:53;26.20;99.90
11569;DHT22;5840;46.894;15.542;2022-07-25T07:23:20;26.30;99.90
11569;DHT22;5840;46.894;15.542;2022-07-25T07:25:47;26.20;99.90
11569;DHT22;5840;46.894;15.542;2022-07-25T07:28:14;26.30;99.90
11569;DHT22;5840;46.894;15.542;2022-07-25T07:30:41;26.50;99.90
11569;DHT22;5840;46.894;15.542;2022-07-25T07:33:08;26.60;99.90
11569;DHT22;5840;46.894;15.542;2022-07-25T07:35:35;26.80;99.90
11569;DHT22;5840;46.894;15.542;2022-07-25T07:38:03;26.80;99.90
11569;DHT22;5840;46.894;15.542;2022-07-25T07:40:31;27.00;99.90
11569;DHT22;5840;46.894;15.542;2022-07-25T07:42:57;27.10;99.90
11569;DHT22;5840;46.894;15.542;2022-07-25T07:45:27;27.10;99.90
11569;DHT22;5840;46.894;15.542;2022-07-25T07:47:54;27.20;99.90
11569;DHT22;5840;46.894;15.542;2022-07-25T07:50:23;27.40;99.90
11569;DHT22;5840;46.894;15.542;2022-07-25T07:52:51;27.70;99.90
11569;DHT22;5840;46.894;15.542;2022-07-25T07:55:20;27.80;99.90
11569;DHT22;5840;46.894;15.542;2022-07-25T07:58:05;27.90;99.90
11569;DHT22;5840;46.894;15.542;2022-07-25T08:00:32;28.00;99.00
11569;DHT22;5840;46.894;15.542;2022-07-25T08:03:01;28.20;99.90
11569;DHT22;5840;46.894;15.542;2022-07-25T08:05:30;28.40;99.90
11569;DHT22;5840;46.894;15.542;2022-07-25T08:07:58;28.50;99.70
11569;DHT22;5840;46.894;15.542;2022-07-25T08:10:27;28.70;99.90
11569;DHT22;5840;46.894;15.542;2022-07-25T08:12:55;28.70;96.80
11569;DHT22;5840;46.894;15.542;2022-07-25T08:15:22;28.70;97.90
11569;DHT22;5840;46.894;15.542;2022-07-25T08:17:50;28.60;97.80
11569;DHT22;5840;46.894;15.542;2022-07-25T08:20:18;28.80;98.50
11569;DHT22;5840;46.894;15.542;2022-07-25T08:22:46;28.70;97.60
11569;DHT22;5840;46.894;15.542;2022-07-25T08:25:19;28.80;97.70
11569;DHT22;5840;46.894;15.542;2022-07-25T08:27:48;28.80;97.90
11569;DHT22;5840;46.894;15.542;2022-07-25T08:30:18;29.00;98.30
11569;DHT22;5840;46.894;15.542;2022-07-25T08:32:46;29.10;98.90
11569;DHT22;5840;46.894;15.542;2022-07-25T08:35:13;29.30;99.20
11569;DHT22;5840;46.894;15.542;2022-07-25T08:37:40;29.30;97.80
11569;DHT22;5840;46.894;15.542;2022-07-25T08:40:08;29.40;96.80
11569;DHT22;5840;46.894;15.542;2022-07-25T08:42:36;29.60;97.60
11569;DHT22;5840;46.894;15.542;2022-07-25T08:45:07;29.70;96.90
11569;DHT22;5840;46.894;15.542;2022-07-25T08:47:35;29.70;96.50
11569;DHT22;5840;46.894;15.542;2022-07-25T08:50:03;29.80;97.20
11569;DHT22;5840;46.894;15.542;2022-07-25T08:52:32;30.00;97.20
11569;DHT22;5840;46.894;15.542;2022-07-25T08:55:00;30.10;96.00
11569;DHT22;5840;46.894;15.542;2022-07-25T08:57:28;30.20;95.10
11569;DHT22;5840;46.894;15.542;2022-07-25T08:59:56;30.20;95.60
11569;DHT22;5840;46.894;15.542;2022-07-25T09:02:26;30.20;95.00
11569;DHT22;5840;46.894;15.542;2022-07-25T09:04:53;30.30;96.60
11569;DHT22;5840;46.894;15.542;2022-07-25T09:07:34;30.30;95.70
11569;DHT22;5840;46.894;15.542;2022-07-25T09:10:12;30.50;96.50
11569;DHT22;5840;46.894;15.542;2022-07-25T09:12:40;30.60;96.90
11569;DHT22;5840;46.894;15.542;2022-07-25T09:15:08;30.50;94.80
11569;DHT22;5840;46.894;15.542;2022-07-25T09:17:36;30.60;94.50
11569;DHT22;5840;46.894;15.542;2022-07-25T09:20:04;30.50;94.20
11569;DHT22;5840;46.894;15.542;2022-07-25T09:22:42;30.70;95.70
11569;DHT22;5840;46.894;15.542;2022-07-25T09:25:19;30.80;95.60
11569;DHT22;5840;46.894;15.542;2022-07-25T09:27:46;30.80;94.50
11569;DHT22;5840;46.894;15.542;2022-07-25T09:30:15;30.80;94.00
11569;DHT22;5840;46.894;15.542;2022-07-25T09:32:43;30.90;94.30
11569;DHT22;5840;46.894;15.542;2022-07-25T09:35:10;30.90;93.70
11569;DHT22;5840;46.894;15.542;2022-07-25T09:37:38;31.00;93.60
11569;DHT22;5840;46.894;15.542;2022-07-25T09:40:12;31.20;94.30
11569;DHT22;5840;46.894;15.542;2022-07-25T09:42:40;31.40;93.10
11569;DHT22;5840;46.894;15.542;2022-07-25T09:45:12;31.30;92.00
11569;DHT22;5840;46.894;15.542;2022-07-25T09:47:52;31.40;92.00
11569;DHT22;5840;46.894;15.542;2022-07-25T09:50:20;31.60;93.40
11569;DHT22;5840;46.894;15.542;2022-07-25T09:52:49;31.90;91.20
11569;DHT22;5840;46.894;15.542;2022-07-25T09:55:16;32.10;93.20
11569;DHT22;5840;46.894;15.542;2022-07-25T09:57:45;32.00;91.30
11569;DHT22;5840;46.894;15.542;2022-07-25T10:00:17;32.20;90.70
11569;DHT22;5840;46.894;15.542;2022-07-25T10:02:51;32.10;90.30
11569;DHT22;5840;46.894;15.542;2022-07-25T10:05:30;32.20;89.30
11569;DHT22;5840;46.894;15.542;2022-07-25T10:08:05;32.20;91.00
11569;DHT22;5840;46.894;15.542;2022-07-25T10:10:36;32.50;91.00
11569;DHT22;5840;46.894;15.542;2022-07-25T10:13:06;32.70;87.40
11569;DHT22;5840;46.894;15.542;2022-07-25T10:15:46;33.00;91.80
11569;DHT22;5840;46.894;15.542;2022-07-25T10:18:21;33.10;86.90
11569;DHT22;5840;46.894;15.542;2022-07-25T10:20:49;33.20;86.10
11569;DHT22;5840;46.894;15.542;2022-07-25T10:23:21;33.30;88.30
11569;DHT22;5840;46.894;15.542;2022-07-25T10:25:59;33.40;83.50
11569;DHT22;5840;46.894;15.542;2022-07-25T10:28:42;33.40;83.40
11569;DHT22;5840;46.894;15.542;2022-07-25T10:31:20;33.10;82.80
11569;DHT22;5840;46.894;15.542;2022-07-25T10:33:50;32.90;85.10
11569;DHT22;5840;46.894;15.542;2022-07-25T10:36:18;32.90;86.50
11569;DHT22;5840;46.894;15.542;2022-07-25T10:38:45;32.80;85.10
11569;DHT22;5840;46.894;15.542;2022-07-25T10:41:14;32.80;83.20
11569;DHT22;5840;46.894;15.542;2022-07-25T10:43:44;32.90;87.40
11569;DHT22;5840;46.894;15.542;2022-07-25T10:46:12;33.00;84.60
11569;DHT22;5840;46.894;15.542;2022-07-25T10:48:40;33.20;86.80
11569;DHT22;5840;46.894;15.542;2022-07-25T10:51:10;33.40;85.00
11569;DHT22;5840;46.894;15.542;2022-07-25T10:53:43;33.30;79.60
11569;DHT22;5840;46.894;15.542;2022-07-25T10:56:13;33.20;79.90
11569;DHT22;5840;46.894;15.542;2022-07-25T10:58:46;33.10;79.60
11569;DHT22;5840;46.894;15.542;2022-07-25T11:01:18;33.10;83.10
11569;DHT22;5840;46.894;15.542;2022-07-25T11:03:45;33.10;80.30
11569;DHT22;5840;46.894;15.542;2022-07-25T11:06:14;33.10;80.80
11569;DHT22;5840;46.894;15.542;2022-07-25T11:08:42;33.30;81.90
11569;DHT22;5840;46.894;15.542;2022-07-25T11:11:10;33.40;78.80
11569;DHT22;5840;46.894;15.542;2022-07-25T11:13:38;33.50;82.90
11569;DHT22;5840;46.894;15.542;2022-07-25T11:16:06;33.50;79.70
11569;DHT22;5840;46.894;15.542;2022-07-25T11:18:34;33.60;80.80
11569;DHT22;5840;46.894;15.542;2022-07-25T11:21:04;33.50;79.50
11569;DHT22;5840;46.894;15.542;2022-07-25T11:23:33;33.80;80.10
11569;DHT22;5840;46.894;15.542;2022-07-25T11:26:07;33.90;76.80
11569;DHT22;5840;46.894;15.542;2022-07-25T11:28:39;33.90;76.10
11569;DHT22;5840;46.894;15.542;2022-07-25T11:31:06;33.80;77.60
11569;DHT22;5840;46.894;15.542;2022-07-25T11:33:33;33.90;74.80
11569;DHT22;5840;46.894;15.542;2022-07-25T11:36:01;34.00;79.00
11569;DHT22;5840;46.894;15.542;2022-07-25T11:38:29;33.60;75.60
11569;DHT22;5840;46.894;15.542;2022-07-25T11:40:57;33.70;76.00
11569;DHT22;5840;46.894;15.542;2022-07-25T11:43:24;34.00;79.50
11569;DHT22;5840;46.894;15.542;2022-07-25T11:45:56;34.00;78.00
11569;DHT22;5840;46.894;15.542;2022-07-25T11:48:30;34.20;79.00
11569;DHT22;5840;46.894;15.542;2022-07-25T11:51:06;34.40;78.20
11569;DHT22;5840;46.894;15.542;2022-07-25T11:53:39;34.60;78.20
11569;DHT22;5840;46.894;15.542;2022-07-25T11:56:15;34.70;74.90
11569;DHT22;5840;46.894;15.542;2022-07-25T11:58:43;34.80;73.70
11569;DHT22;5840;46.894;15.542;2022-07-25T12:01:14;34.70;79.10
11569;DHT22;5840;46.894;15.542;2022-07-25T12:03:41;34.70;74.60
11569;DHT22;5840;46.894;15.542;2022-07-25T12:06:09;34.60;71.30
11569;DHT22;5840;46.894;15.542;2022-07-25T12:08:38;34.40;73.20
11569;DHT22;5840;46.894;15.542;2022-07-25T12:11:17;34.60;77.80
11569;DHT22;5840;46.894;15.542;2022-07-25T12:13:45;34.80;75.90
11569;DHT22;5840;46.894;15.542;2022-07-25T12:16:12;34.80;73.40
11569;DHT22;5840;46.894;15.542;2022-07-25T12:18:39;34.90;71.70
11569;DHT22;5840;46.894;15.542;2022-07-25T12:21:06;34.90;71.00
11569;DHT22;5840;46.894;15.542;2022-07-25T12:23:33;34.70;72.50
11569;DHT22;5840;46.894;15.542;2022-07-25T12:26:00;34.60;72.60
11569;DHT22;5840;46.894;15.542;2022-07-25T12:28:29;34.60;76.50
11569;DHT22;5840;46.894;15.542;2022-07-25T12:30:56;34.70;73.00
11569;DHT22;5840;46.894;15.542;2022-07-25T12:33:23;34.60;71.10
11569;DHT22;5840;46.894;15.542;2022-07-25T12:35:50;34.60;76.30
11569;DHT22;5840;46.894;15.542;2022-07-25T12:38:17;34.60;71.80
11569;DHT22;5840;46.894;15.542;2022-07-25T12:40:44;34.40;73.50
11569;DHT22;5840;46.894;15.542;2022-07-25T12:43:11;34.30;71.70
11569;DHT22;5840;46.894;15.542;2022-07-25T12:45:40;34.50;72.60
11569;DHT22;5840;46.894;15.542;2022-07-25T12:48:07;34.60;71.70
11569;DHT22;5840;46.894;15.542;2022-07-25T12:50:34;34.70;72.60
11569;DHT22;5840;46.894;15.542;2022-07-25T12:53:01;34.60;74.10
11569;DHT22;5840;46.894;15.542;2022-07-25T12:55:29;34.60;72.60
11569;DHT22;5840;46.894;15.542;2022-07-25T12:57:56;34.50;71.70
11569;DHT22;5840;46.894;15.542;2022-07-25T13:00:23;34.60;75.30
11569;DHT22;5840;46.894;15.542;2022-07-25T13:02:53;34.60;74.20
11569;DHT22;5840;46.894;15.542;2022-07-25T13:05:21;34.60;72.60
11569;DHT22;5840;46.894;15.542;2022-07-25T13:07:48;34.80;74.70
11569;DHT22;5840;46.894;15.542;2022-07-25T13:10:16;34.80;70.00
11569;DHT22;5840;46.894;15.542;2022-07-25T13:12:43;34.80;71.60
11569;DHT22;5840;46.894;15.542;2022-07-25T13:15:10;34.80;70.40
11569;DHT22;5840;46.894;15.542;2022-07-25T13:17:37;34.80;69.50
11569;DHT22;5840;46.894;15.542;2022-07-25T13:20:08;34.90;69.80
11569;DHT22;5840;46.894;15.542;2022-07-25T13:22:35;34.90;71.80
11569;DHT22;5840;46.894;15.542;2022-07-25T13:25:03;34.80;72.30
11569;DHT22;5840;46.894;15.542;2022-07-25T13:27:30;35.00;70.60
11569;DHT22;5840;46.894;15.542;2022-07-25T13:29:57;35.00;69.50
11569;DHT22;5840;46.894;15.542;2022-07-25T13:32:24;34.70;69.50
11569;DHT22;5840;46.894;15.542;2022-07-25T13:34:53;34.50;69.70
11569;DHT22;5840;46.894;15.542;2022-07-25T13:37:22;34.50;70.50
11569;DHT22;5840;46.894;15.542;2022-07-25T13:39:49;34.60;74.00
11569;DHT22;5840;46.894;15.542;2022-07-25T13:42:16;34.60;74.00
11569;DHT22;5840;46.894;15.542;2022-07-25T13:44:43;34.90;73.60
11569;DHT22;5840;46.894;15.542;2022-07-25T13:47:10;34.90;72.60
11569;DHT22;5840;46.894;15.542;2022-07-25T13:49:37;34.90;73.80
11569;DHT22;5840;46.894;15.542;2022-07-25T13:52:05;34.70;72.90
11569;DHT22;5840;46.894;15.542;2022-07-25T13:54:34;34.70;72.50
11569;DHT22;5840;46.894;15.542;2022-07-25T13:57:01;34.50;69.30
11569;DHT22;5840;46.894;15.542;2022-07-25T13:59:28;34.60;71.10
11569;DHT22;5840;46.894;15.542;2022-07-25T14:01:55;34.60;73.60
11569;DHT22;5840;46.894;15.542;2022-07-25T14:04:22;34.70;74.00
11569;DHT22;5840;46.894;15.542;2022-07-25T14:06:49;34.70;73.40
11569;DHT22;5840;46.894;15.542;2022-07-25T14:09:18;34.80;71.80
11569;DHT22;5840;46.894;15.542;2022-07-25T14:11:47;34.80;74.40
11569;DHT22;5840;46.894;15.542;2022-07-25T14:14:14;34.90;74.80
11569;DHT22;5840;46.894;15.542;2022-07-25T14:16:41;34.70;74.30
11569;DHT22;5840;46.894;15.542;2022-07-25T14:19:08;34.70;74.10
11569;DHT22;5840;46.894;15.542;2022-07-25T14:21:35;34.60;73.80
11569;DHT22;5840;46.894;15.542;2022-07-25T14:24:03;34.40;70.20
11569;DHT22;5840;46.894;15.542;2022-07-25T14:26:30;34.30;72.00
11569;DHT22;5840;46.894;15.542;2022-07-25T14:28:58;34.20;72.10
11569;DHT22;5840;46.894;15.542;2022-07-25T14:31:25;34.10;71.50
11569;DHT22;5840;46.894;15.542;2022-07-25T14:33:52;33.80;72.00
11569;DHT22;5840;46.894;15.542;2022-07-25T14:36:19;33.80;74.40
11569;DHT22;5840;46.894;15.542;2022-07-25T14:38:46;33.80;73.70
11569;DHT22;5840;46.894;15.542;2022-07-25T14:41:14;33.90;73.50
11569;DHT22;5840;46.894;15.542;2022-07-25T14:43:41;33.90;74.70
11569;DHT22;5840;46.894;15.542;2022-07-25T14:46:09;33.90;73.90
11569;DHT22;5840;46.894;15.542;2022-07-25T14:48:37;33.80;73.40
11569;DHT22;5840;46.894;15.542;2022-07-25T14:51:04;33.70;75.30
11569;DHT22;5840;46.894;15.542;2022-07-25T14:53:32;33.70;76.80
11569;DHT22;5840;46.894;15.542;2022-07-25T14:56:00;33.70;78.50
11569;DHT22;5840;46.894;15.542;2022-07-25T14:58:27;33.70;74.70
11569;DHT22;5840;46.894;15.542;2022-07-25T15:00:54;33.70;75.80
11569;DHT22;5840;46.894;15.542;2022-07-25T15:03:22;33.60;75.10
11569;DHT22;5840;46.894;15.542;2022-07-25T15:05:49;33.40;73.30
11569;DHT22;5840;46.894;15.542;2022-07-25T15:08:16;33.40;76.00
11569;DHT22;5840;46.894;15.542;2022-07-25T15:10:43;33.30;77.40
11569;DHT22;5840;46.894;15.542;2022-07-25T15:13:10;33.40;80.70
11569;DHT22;5840;46.894;15.542;2022-07-25T15:15:37;33.30;75.30
11569;DHT22;5840;46.894;15.542;2022-07-25T15:18:04;33.20;73.40
11569;DHT22;5840;46.894;15.542;2022-07-25T15:20:32;33.20;75.70
11569;DHT22;5840;46.894;15.542;2022-07-25T15:22:59;33.20;77.10
11569;DHT22;5840;46.894;15.542;2022-07-25T15:25:26;33.20;77.80
11569;DHT22;5840;46.894;15.542;2022-07-25T15:27:53;33.10;76.00
11569;DHT22;5840;46.894;15.542;2022-07-25T15:30:20;33.00;75.10
11569;DHT22;5840;46.894;15.542;2022-07-25T15:32:47;32.90;77.60
11569;DHT22;5840;46.894;15.542;2022-07-25T15:35:14;32.80;76.60